Terminal Aerodrome Forecast
Issued by NWS

Home | Current Version | Previous Version | Text Only | Print | Product List | Glossary On
Versions: 1 2 3 4 5 6 7 8 9 10 11 12 13 14 15 16 17
000
FTUS46 KLOX 301309 AAA
TAFSBA
TAF AMD
KSBA 301309Z 3013/0112 VRB03KT P6SM SCT025
     FM301400 VRB03KT P6SM BKN025
     FM301800 22009KT P6SM SCT035
     FM302200 26015KT P6SM FEW040
     FM010200 32008KT P6SM SKC
     FM010700 VRB03KT P6SM SKC=

USA.gov is the U.S. government's official web portal to all federal, state and local government web resources and services.